XFW weather

Hamburg-Finkenwerder Airport
Hamburg, Hamburg, Germany

Public forecast

Using degrees Celsius for public forecast. Weather courtesy of forecast.io.

METAR (pilot weather report)

Retrieved 2019/03/22 20:50 UTC (1 hour ago):

EDHI 222050Z AUTO 11004KT 070V140 5000 // NCD 12/09 Q1026

TAF (pilot weather forecast)

Closest forecast is Hamburg Airport, 7.9 nm (14.6 km) NE. Retrieved 2019/03/22 18:27 UTC (4 hours ago):

TAF EDDH 221700Z 2218/2324 16007KT 9000 NSC BECMG 2302/2305 25007KT 3500 BR BKN004 TEMPO 2305/2308 0700 FG BKN001 BECMG 2308/2311 30012KT 9999 BKN012 BECMG 2311/2313 SCT030